Bei Facebook empfehlenBei Twitter postenGoogle plusPinterest

Das Wetter im Erzgebirge am 01.12.2015

Wetter und Klima am 01.12.2015 Holzhau im Erzgebirge (630m ü.NN)
Letzte gemessene Temperatur und Uhrzeit der Messung23:45:00 Uhr2.20 °C
Temperatur (Maximum / Höchstwert) und Uhrzeit der Messung04:45:00 Uhr7.00 °C
Temperatur (Minimum / Tiefstwert) und Uhrzeit der Messung19:00:001.60 °C
Errechneter Absolutwert der Temperaturschwankungen zwischen Tmin und Tmax des Tages5.40 K
Errechnete Tagesmitteltemperatur3.72708 °C
Gesamt - Niederschlag des Tages (in flüssiger Form)2.07 Liter / m²
Luftdruck (Maximum / Höchstwert) und Zeitpunkt der Messung21:30:00 Uhr1019.90 hPa
Luftdruck (Minimum / Tiefstwert) und Zeitpunkt der Messung00:30:00 Uhr1005.30 hPa
Errechneter Absolutwert der Luftdruckschwankungen des Tages14.60 hPa
Höchste gemessene Windgeschwindigkeit und Uhrzeit der Messung00:30:00 Uhr28.08 km/h
Errechnete Windhäufigkeit in Relation zu den Messwerten des Tages48.95833 %
Niedrigste Windkühle (Windchill) und Zeitpunkt der Messung12:30:00 Uhr0.30 °C
Taupunkt (Maximum / Höchstwert) und Uhrzeit der Messung04:45:00 Uhr6.40 °C
Taupunkt (Minimum / Tiefstwert) und Uhrzeit der Messung19:00:000.40 °C
Anzahl der automatisch eingelesenen Messwerte 96

Detaillierte Wetter- und Klima- Messwerte für den 01.12.2015 in Holzhau im Erzgebirge (630m ü.NN)
ZeitTemperaturLuftdruckRel. LuftfeuchteWindWindrichtungWindchillTaupunktNiederschlag l/m²
23:45:002.20 °C1019.40 hPa94.00 %1.30 °C2.07
23:30:002.20 °C1019.40 hPa94.00 %1.30 °C2.07
23:15:002.20 °C1019.40 hPa94.00 %1.30 °C2.07
23:00:002.20 °C1019.50 hPa94.00 %1.30 °C2.07
22:45:002.20 °C1019.50 hPa94.00 %1.30 °C2.07
22:30:002.30 °C1019.50 hPa94.00 %1.40 °C2.07
22:15:002.30 °C1019.50 hPa94.00 %1.40 °C2.07
22:00:002.30 °C1019.70 hPa94.00 %1.40 °C2.07
21:45:002.30 °C1019.80 hPa93.00 %1.30 °C2.07
21:30:002.20 °C1019.90 hPa93.00 %1.20 °C2.07
21:15:002.10 °C1019.60 hPa93.00 %1.10 °C2.07
21:00:002.10 °C1019.70 hPa93.00 %1.10 °C2.07
20:45:002.10 °C1019.70 hPa93.00 %1.10 °C2.07
20:30:001.90 °C1019.60 hPa93.00 %0.90 °C2.07
20:15:001.90 °C1019.40 hPa93.00 %0.90 °C2.07
20:00:001.90 °C1019.50 hPa93.00 %0.90 °C2.07
19:45:001.90 °C1019.50 hPa92.00 %0.70 °C2.07
19:30:001.90 °C1019.50 hPa92.00 %0.70 °C2.07
19:15:001.80 °C1019.40 hPa92.00 %0.60 °C2.07
19:00:001.60 °C1019.40 hPa92.00 %0.40 °C2.07
18:45:001.60 °C1019.20 hPa92.00 %0.40 °C2.07
18:30:001.80 °C1018.90 hPa92.00 %0.60 °C2.07
18:15:001.80 °C1018.70 hPa92.00 %0.60 °C2.07
18:00:001.90 °C1018.90 hPa92.00 %0.70 °C2.07
17:45:001.90 °C1018.60 hPa92.00 %0.70 °C2.07
17:30:001.90 °C1018.50 hPa91.00 %0.60 °C2.07
17:15:001.90 °C1018.30 hPa91.00 %0.60 °C2.07
17:00:002.10 °C1018.30 hPa91.00 %0.80 °C2.07
16:45:002.10 °C1018.10 hPa90.00 %0.60 °C2.07
16:30:002.30 °C1018.00 hPa90.00 %0.80 °C2.07
16:15:002.60 °C1018.00 hPa91.00 %1.30 °C2.07
16:00:002.70 °C1017.80 hPa90.00 %2.52 km/hNNW2.70 °C1.20 °C2.07
15:45:002.90 °C1017.50 hPa90.00 %4.68 km/hWNW2.90 °C1.40 °C2.07
15:30:003.10 °C1017.50 hPa90.00 %1.60 °C2.07
15:15:003.10 °C1017.30 hPa90.00 %1.60 °C2.07
15:00:003.20 °C1017.20 hPa90.00 %1.70 °C2.07
14:45:003.40 °C1016.80 hPa90.00 %1.90 °C2.07
14:30:003.50 °C1016.70 hPa90.00 %6.48 km/hNW1.80 °C2.00 °C2.07
14:15:003.80 °C1016.70 hPa90.00 %3.60 km/hWNW3.80 °C2.30 °C2.07
14:00:004.10 °C1016.60 hPa91.00 %1.80 km/hWNW4.10 °C2.80 °C2.07
13:45:004.10 °C1016.60 hPa91.00 %3.96 km/hNW4.10 °C2.80 °C2.07
13:30:004.50 °C1016.50 hPa92.00 %3.30 °C2.07
13:15:004.90 °C1016.20 hPa92.00 %4.68 km/hWNW4.90 °C3.70 °C2.07
13:00:004.40 °C1015.90 hPa94.00 %12.60 km/hWNW1.40 °C3.50 °C2.07
12:45:003.90 °C1016.10 hPa94.00 %3.00 °C2.07
12:30:003.80 °C1016.20 hPa94.00 %14.76 km/hWNW0.30 °C2.90 °C2.07
12:15:003.80 °C1016.20 hPa94.00 %2.90 °C2.07
12:00:003.80 °C1016.10 hPa95.00 %3.96 km/hWNW3.80 °C3.10 °C2.07
11:45:003.30 °C1015.80 hPa95.00 %2.52 km/hWNW3.30 °C2.60 °C2.07
11:30:002.90 °C1016.00 hPa94.00 %2.16 km/hNNW2.90 °C2.00 °C2.07
11:15:002.70 °C1015.90 hPa94.00 %1.80 °C2.07
11:00:003.00 °C1015.80 hPa95.00 %4.68 km/hN3.00 °C2.30 °C2.07
10:45:003.20 °C1015.60 hPa95.00 %7.20 km/hWNW1.30 °C2.50 °C2.07
10:30:003.30 °C1015.60 hPa95.00 %2.60 °C2.07
10:15:003.30 °C1015.40 hPa95.00 %2.16 km/hWNW3.30 °C2.60 °C2.07
10:00:003.10 °C1015.20 hPa95.00 %4.68 km/hNNW3.10 °C2.40 °C2.07
09:45:002.90 °C1014.90 hPa95.00 %2.20 °C2.07
09:30:002.90 °C1014.80 hPa95.00 %4.32 km/hNW2.90 °C2.20 °C2.07
09:15:002.60 °C1014.90 hPa95.00 %1.90 °C2.07
09:00:002.60 °C1014.30 hPa95.00 %2.52 km/hNNW2.60 °C1.90 °C2.07
08:45:002.50 °C1014.10 hPa95.00 %1.80 °C2.07
08:30:002.50 °C1014.20 hPa95.00 %1.80 °C2.07
08:15:002.50 °C1014.00 hPa95.00 %1.80 °C2.07
08:00:002.60 °C1013.90 hPa94.00 %1.70 °C2.07
07:45:002.80 °C1013.50 hPa95.00 %6.84 km/hNW0.90 °C2.10 °C2.07
07:30:002.90 °C1013.50 hPa94.00 %7.20 km/hNNW0.90 °C2.00 °C2.07
07:15:003.00 °C1013.10 hPa95.00 %2.88 km/hW3.00 °C2.30 °C2.07
07:00:003.30 °C1012.60 hPa95.00 %4.32 km/hWNW3.30 °C2.60 °C2.07
06:45:003.50 °C1012.60 hPa95.00 %2.80 °C2.07
06:30:003.90 °C1012.30 hPa95.00 %3.24 km/hWNW3.90 °C3.20 °C2.07
06:15:004.40 °C1011.60 hPa95.00 %10.44 km/hNW1.80 °C3.70 °C2.07
06:00:004.80 °C1011.20 hPa95.00 %4.10 °C2.07
05:45:005.20 °C1010.80 hPa95.00 %4.50 °C2.07
05:30:005.60 °C1010.20 hPa95.00 %7.56 km/hWNW4.00 °C4.90 °C2.07
05:15:006.40 °C1009.50 hPa95.00 %4.68 km/hWNW6.40 °C5.70 °C2.07
05:00:006.90 °C1009.00 hPa96.00 %12.24 km/hNO4.50 °C6.30 °C2.07
04:45:007.00 °C1008.20 hPa96.00 %10.80 km/hNW4.90 °C6.40 °C2.07
04:30:006.90 °C1007.80 hPa95.00 %14.76 km/hNW4.10 °C6.20 °C2.07
04:15:006.90 °C1007.60 hPa95.00 %2.52 km/hWSW6.90 °C6.20 °C2.07
04:00:006.90 °C1007.40 hPa95.00 %18.72 km/hNW3.60 °C6.20 °C2.07
03:45:006.90 °C1007.00 hPa95.00 %9.72 km/hWNW5.00 °C6.20 °C2.07
03:30:006.90 °C1006.80 hPa95.00 %7.92 km/hWNW5.40 °C6.20 °C1.04
03:15:006.80 °C1006.40 hPa95.00 %14.76 km/hWNW4.00 °C6.10 °C0.52
03:00:006.80 °C1006.50 hPa95.00 %11.52 km/hWNW4.50 °C6.10 °C0.52
02:45:006.90 °C1006.30 hPa95.00 %11.52 km/hNW4.60 °C6.20 °C 
02:30:006.90 °C1006.10 hPa95.00 %2.88 km/hWNW6.90 °C6.20 °C 
02:15:006.80 °C1005.80 hPa95.00 %4.68 km/hWNW6.80 °C6.10 °C 
02:00:006.60 °C1006.00 hPa95.00 %10.80 km/hWNW4.40 °C5.90 °C 
01:45:006.50 °C1005.70 hPa95.00 %13.32 km/hW3.90 °C5.80 °C 
01:30:006.40 °C1005.50 hPa94.00 %7.20 km/hWSW5.00 °C5.50 °C 
01:15:006.40 °C1005.60 hPa94.00 %10.44 km/hW4.20 °C5.50 °C 
01:00:006.40 °C1005.60 hPa94.00 %8.28 km/hNW4.70 °C5.50 °C 
00:45:006.40 °C1005.60 hPa94.00 %18.00 km/hNNW3.10 °C5.50 °C 
00:30:006.30 °C1005.30 hPa94.00 %28.08 km/hNW1.90 °C5.40 °C 
00:15:006.10 °C1005.80 hPa94.00 %24.84 km/hWSW1.90 °C5.20 °C 
00:00:005.90 °C1005.50 hPa94.00 %15.48 km/hSW2.80 °C5.00 °C 

Permanenter Link zu dieser Seite: Wetter im Erzgebirge am 01.12.2015
Performance-Info: Die Erstellung der Seite / Statistik(en) / Tabelle(n) erforderte 5 Datenbankserver-Abfrage(n) und dauerte 101 Millisekunden. (Dieser Messwert ist von der Gesamt-Auslastung des Servers abhängig.)
Erzgebirge - Wetter | Erzgebirge - Wetter (Mobilgeräte) | Komplette Klimadatenbank